createdAt,value
2022-11-20T00:02:01.687Z,-11.30
2022-11-20T00:04:04.694Z,-11.30
2022-11-20T00:06:10.066Z,-11.34
2022-11-20T00:08:13.458Z,-11.32
2022-11-20T00:10:16.153Z,-11.32
2022-11-20T00:12:18.760Z,-11.30
2022-11-20T00:14:21.479Z,-11.28
2022-11-20T00:16:26.413Z,-11.27
2022-11-20T00:18:29.617Z,-11.26
2022-11-20T00:20:32.229Z,-11.26
2022-11-20T00:22:34.836Z,-11.24
2022-11-20T00:24:42.741Z,-11.21
2022-11-20T00:26:45.744Z,-11.20
2022-11-20T00:28:54.127Z,-11.15
2022-11-20T00:31:04.024Z,-11.10
2022-11-20T00:33:06.718Z,-11.08
2022-11-20T00:35:09.452Z,-11.02
2022-11-20T00:37:12.167Z,-10.97
2022-11-20T00:39:15.278Z,-10.96
2022-11-20T00:41:17.801Z,-10.93
2022-11-20T00:43:20.388Z,-10.93
2022-11-20T00:45:22.940Z,-10.88
2022-11-20T00:47:25.508Z,-10.86
2022-11-20T00:49:28.166Z,-10.83
2022-11-20T00:51:30.715Z,-10.80
2022-11-20T00:53:33.801Z,-10.79
2022-11-20T00:55:36.379Z,-10.72
2022-11-20T00:57:38.904Z,-10.68
2022-11-20T00:59:41.545Z,-10.65
2022-11-20T01:01:44.134Z,-10.65
2022-11-20T01:03:49.317Z,-10.62
2022-11-20T01:05:51.897Z,-10.65
2022-11-20T01:07:54.470Z,-10.62
2022-11-20T01:09:57.093Z,-10.61
2022-11-20T01:12:00.297Z,-10.57
2022-11-20T01:14:05.556Z,-10.57
2022-11-20T01:16:12.091Z,-10.57
2022-11-20T01:18:14.711Z,-10.55
2022-11-20T01:20:17.307Z,-10.54
2022-11-20T01:22:19.843Z,-10.53
2022-11-20T01:24:23.819Z,-10.53
2022-11-20T01:26:33.321Z,-10.53
2022-11-20T01:28:36.292Z,-10.48
2022-11-20T01:30:38.892Z,-10.46
2022-11-20T01:32:41.514Z,-10.47
2022-11-20T01:34:44.131Z,-10.44
2022-11-20T01:36:48.449Z,-10.43
2022-11-20T01:38:58.759Z,-10.35
2022-11-20T01:41:01.487Z,-10.35
2022-11-20T01:43:22.520Z,-10.32
2022-11-20T01:46:15.625Z,-10.25
2022-11-20T01:48:21.186Z,-10.28
2022-11-20T01:50:34.860Z,-10.28
2022-11-20T01:52:56.428Z,-10.30
2022-11-20T01:55:07.726Z,-10.33
2022-11-20T01:57:13.349Z,-10.28
2022-11-20T01:59:20.225Z,-10.28
2022-11-20T02:01:23.330Z,-10.23
2022-11-20T02:03:26.550Z,-10.22
2022-11-20T02:05:47.522Z,-10.21
2022-11-20T02:07:51.660Z,-10.21
2022-11-20T02:09:58.596Z,-10.19
2022-11-20T02:12:02.037Z,-10.15
2022-11-20T02:14:05.077Z,-10.13
2022-11-20T02:16:13.080Z,-10.13
2022-11-20T02:18:18.954Z,-10.09
2022-11-20T02:20:21.671Z,-10.10
2022-11-20T02:22:32.163Z,-10.09
2022-11-20T02:24:35.558Z,-10.10
2022-11-20T02:27:06.415Z,-10.05
2022-11-20T02:29:09.035Z,-10.07
2022-11-20T02:31:11.858Z,-10.08
2022-11-20T02:33:14.591Z,-10.16
2022-11-20T02:35:19.899Z,-10.15
2022-11-20T02:37:22.972Z,-10.17
2022-11-20T02:39:28.131Z,-10.18
2022-11-20T02:41:38.716Z,-10.17
2022-11-20T02:43:41.309Z,-10.14
2022-11-20T02:45:43.922Z,-10.15
2022-11-20T02:47:46.517Z,-10.08
2022-11-20T02:49:49.236Z,-10.05
2022-11-20T02:51:51.925Z,-10.03
2022-11-20T02:53:54.511Z,-10.05
2022-11-20T02:55:57.096Z,-10.04
2022-11-20T02:57:59.628Z,-10.06
2022-11-20T03:00:02.445Z,-10.06
2022-11-20T03:02:08.205Z,-10.05
2022-11-20T03:04:10.864Z,-10.05
2022-11-20T03:06:13.573Z,-10.05
2022-11-20T03:08:16.163Z,-10.03
2022-11-20T03:10:18.764Z,-9.99
2022-11-20T03:12:21.360Z,-10.02
2022-11-20T03:14:23.987Z,-10.01
2022-11-20T03:16:26.693Z,-10.00
2022-11-20T03:18:30.148Z,-10.02
2022-11-20T03:20:34.086Z,-10.04
2022-11-20T03:22:36.715Z,-10.04
2022-11-20T03:24:39.341Z,-10.07
2022-11-20T03:26:42.175Z,-10.04
2022-11-20T03:28:50.220Z,-10.00
2022-11-20T03:30:52.770Z,-10.00
2022-11-20T03:32:55.629Z,-9.94
2022-11-20T03:34:58.285Z,-9.94
2022-11-20T03:37:00.829Z,-9.92
2022-11-20T03:39:03.572Z,-9.87
2022-11-20T03:41:10.824Z,-9.83
2022-11-20T03:43:13.547Z,-9.80
2022-11-20T03:45:17.861Z,-9.82
2022-11-20T03:47:20.537Z,-9.81
2022-11-20T03:49:23.438Z,-9.81
2022-11-20T03:51:31.603Z,-9.81
2022-11-20T03:53:34.386Z,-9.80
2022-11-20T03:55:37.069Z,-9.80
2022-11-20T03:57:39.738Z,-9.80
2022-11-20T03:59:42.372Z,-9.75
2022-11-20T04:01:49.295Z,-9.75
2022-11-20T04:03:54.357Z,-9.72
2022-11-20T04:05:56.899Z,-9.73
2022-11-20T04:07:59.505Z,-9.66
2022-11-20T04:10:02.080Z,-9.63
2022-11-20T04:12:06.017Z,-9.55
2022-11-20T04:14:15.020Z,-9.47
2022-11-20T04:16:18.731Z,-9.47
2022-11-20T04:18:21.247Z,-9.49
2022-11-20T04:20:23.912Z,-9.48
2022-11-20T04:22:26.477Z,-9.45
2022-11-20T04:24:29.036Z,-9.43
2022-11-20T04:26:32.178Z,-9.40
2022-11-20T04:28:35.476Z,-9.39
2022-11-20T04:30:38.014Z,-9.33
2022-11-20T04:32:40.913Z,-9.32
2022-11-20T04:34:43.538Z,-9.34
2022-11-20T04:36:46.192Z,-9.31
2022-11-20T04:38:57.297Z,-9.27
2022-11-20T04:41:01.547Z,-9.20
2022-11-20T04:43:04.254Z,-9.20
2022-11-20T04:45:07.479Z,-9.18
2022-11-20T04:47:10.076Z,-9.16
2022-11-20T04:49:13.059Z,-9.15
2022-11-20T04:51:16.311Z,-9.11
2022-11-20T04:53:19.876Z,-9.08
2022-11-20T04:55:22.486Z,-9.11
2022-11-20T04:57:25.077Z,-9.09
2022-11-20T04:59:27.629Z,-9.11
2022-11-20T05:01:30.800Z,-9.12
2022-11-20T05:03:34.299Z,-9.15
2022-11-20T05:05:38.989Z,-9.18
2022-11-20T05:07:41.650Z,-9.22
2022-11-20T05:09:44.239Z,-9.22
2022-11-20T05:11:51.228Z,-9.14
2022-11-20T05:13:54.461Z,-9.14
2022-11-20T05:16:01.741Z,-9.16
2022-11-20T05:18:04.451Z,-9.13
2022-11-20T05:20:07.740Z,-9.11
2022-11-20T05:22:10.702Z,-9.08
2022-11-20T05:24:13.436Z,-9.02
2022-11-20T05:26:19.516Z,-9.02
2022-11-20T05:28:23.258Z,-8.99
2022-11-20T05:30:25.773Z,-8.99
2022-11-20T05:32:28.313Z,-8.91
2022-11-20T05:34:31.005Z,-8.88
2022-11-20T05:36:33.797Z,-8.90
2022-11-20T05:38:36.399Z,-8.87
2022-11-20T05:40:38.994Z,-8.84
2022-11-20T05:42:41.558Z,-8.83
2022-11-20T05:44:44.172Z,-8.84
2022-11-20T05:46:46.729Z,-8.79
2022-11-20T05:48:49.360Z,-8.75
2022-11-20T05:50:52.048Z,-8.66
2022-11-20T05:52:54.777Z,-8.64
2022-11-20T05:54:58.060Z,-8.60
2022-11-20T05:57:01.426Z,-8.57
2022-11-20T05:59:04.308Z,-8.49
2022-11-20T06:01:20.604Z,-8.48
2022-11-20T06:03:23.661Z,-8.51
2022-11-20T06:05:26.368Z,-8.48
2022-11-20T06:07:28.971Z,-8.47
2022-11-20T06:09:32.621Z,-8.41
2022-11-20T06:11:35.430Z,-8.42
2022-11-20T06:13:42.044Z,-8.32
2022-11-20T06:15:54.935Z,-8.32
2022-11-20T06:17:57.727Z,-8.31
2022-11-20T06:20:00.334Z,-8.33
2022-11-20T06:22:02.900Z,-8.34
2022-11-20T06:24:05.738Z,-8.30
2022-11-20T06:26:11.035Z,-8.27
2022-11-20T06:28:13.608Z,-8.21
2022-11-20T06:30:16.527Z,-8.17
2022-11-20T06:32:19.087Z,-8.17
2022-11-20T06:34:21.695Z,-8.17
2022-11-20T06:36:24.488Z,-8.11
2022-11-20T06:38:28.714Z,-8.06
2022-11-20T06:40:31.322Z,-8.00
2022-11-20T06:42:33.913Z,-7.90
2022-11-20T06:44:36.562Z,-7.80
2022-11-20T06:46:39.274Z,-7.73
2022-11-20T06:48:42.235Z,-7.63
2022-11-20T06:50:44.864Z,-7.60
2022-11-20T06:52:47.394Z,-7.51
2022-11-20T06:54:50.140Z,-7.49
2022-11-20T06:56:52.774Z,-7.48
2022-11-20T06:58:55.370Z,-7.47
2022-11-20T07:01:06.949Z,-7.42
2022-11-20T07:03:11.315Z,-7.34
2022-11-20T07:05:13.948Z,-7.28
2022-11-20T07:07:16.586Z,-7.24
2022-11-20T07:09:19.189Z,-7.27
2022-11-20T07:11:21.937Z,-7.26
2022-11-20T07:13:24.556Z,-7.23
2022-11-20T07:15:27.353Z,-7.18
2022-11-20T07:17:30.029Z,-7.10
2022-11-20T07:19:32.704Z,-7.09
2022-11-20T07:21:35.590Z,-7.17
2022-11-20T07:23:39.245Z,-7.13
2022-11-20T07:25:41.958Z,-7.16
2022-11-20T07:27:44.918Z,-7.21
2022-11-20T07:29:47.497Z,-7.19
2022-11-20T07:31:50.138Z,-7.14
2022-11-20T07:33:52.845Z,-7.16
2022-11-20T07:35:55.656Z,-7.12
2022-11-20T07:37:58.426Z,-7.11
2022-11-20T07:40:01.493Z,-7.12
2022-11-20T07:42:08.302Z,-7.10
2022-11-20T07:44:11.380Z,-7.06
2022-11-20T07:46:14.255Z,-7.06
2022-11-20T07:48:16.917Z,-7.08
2022-11-20T07:50:21.482Z,-7.03
2022-11-20T07:52:25.040Z,-6.98
2022-11-20T07:54:27.795Z,-7.15
2022-11-20T07:56:30.824Z,-6.95
2022-11-20T07:58:35.605Z,-6.93
2022-11-20T08:00:38.372Z,-6.86
2022-11-20T08:02:42.362Z,-6.81
2022-11-20T08:04:45.038Z,-6.78
2022-11-20T08:06:47.986Z,-6.72
2022-11-20T08:08:50.571Z,-6.69
2022-11-20T08:10:53.220Z,-6.64
2022-11-20T08:13:14.118Z,-6.67
2022-11-20T08:15:16.753Z,-6.69
2022-11-20T08:17:19.361Z,-6.80
2022-11-20T08:19:22.353Z,-6.73
2022-11-20T08:21:25.469Z,-6.72
2022-11-20T08:23:28.085Z,-6.70
2022-11-20T08:25:32.075Z,-6.70
2022-11-20T08:27:34.882Z,-6.77
2022-11-20T08:29:37.921Z,-6.78
2022-11-20T08:31:40.566Z,-6.78
2022-11-20T08:33:43.373Z,-6.81
2022-11-20T08:35:46.325Z,-6.78
2022-11-20T08:37:49.735Z,-6.75
2022-11-20T08:39:53.842Z,-6.73
2022-11-20T08:41:56.520Z,-6.74
2022-11-20T08:44:01.453Z,-6.71
2022-11-20T08:46:04.184Z,-6.76
2022-11-20T08:48:06.901Z,-6.78
2022-11-20T08:50:11.029Z,-6.78
2022-11-20T08:52:13.645Z,-6.77
2022-11-20T08:54:16.359Z,-6.77
2022-11-20T08:56:19.127Z,-6.76
2022-11-20T08:58:21.958Z,-6.77
2022-11-20T09:00:24.965Z,-6.77
2022-11-20T09:02:27.793Z,-6.84
2022-11-20T09:04:30.417Z,-6.78
2022-11-20T09:06:33.168Z,-6.83
2022-11-20T09:08:37.169Z,-6.85
2022-11-20T09:10:42.782Z,-6.82
2022-11-20T09:12:45.404Z,-6.79
2022-11-20T09:14:52.174Z,-6.70
2022-11-20T09:16:57.918Z,-6.67
2022-11-20T09:19:34.069Z,-6.66
2022-11-20T09:21:24.954Z,-6.64
2022-11-20T09:23:28.765Z,-6.61
2022-11-20T09:25:31.430Z,-6.57
2022-11-20T09:27:33.987Z,-6.62
2022-11-20T09:29:36.702Z,-6.63
2022-11-20T09:31:39.331Z,-6.60
2022-11-20T09:33:41.978Z,-6.60
2022-11-20T09:35:45.213Z,-6.65
2022-11-20T09:37:47.845Z,-6.63
2022-11-20T09:39:50.599Z,-6.58
2022-11-20T09:42:24.305Z,-6.59
2022-11-20T09:45:07.104Z,-6.54
2022-11-20T09:47:18.142Z,-6.58
2022-11-20T09:49:36.837Z,-6.54
2022-11-20T09:51:45.048Z,-6.56
2022-11-20T09:53:53.906Z,-6.61
2022-11-20T09:55:57.552Z,-6.53
2022-11-20T09:58:01.063Z,-6.45
2022-11-20T10:00:07.272Z,-6.43
2022-11-20T10:02:25.348Z,-6.36
2022-11-20T10:04:36.672Z,-6.38
2022-11-20T10:07:10.466Z,-6.29
2022-11-20T10:09:28.231Z,-6.22
2022-11-20T10:11:49.606Z,-6.13
2022-11-20T10:14:00.897Z,-6.19
2022-11-20T10:16:27.222Z,-6.25
2022-11-20T10:18:55.263Z,-6.24
2022-11-20T10:21:39.721Z,-6.24
2022-11-20T10:23:54.308Z,-6.17
2022-11-20T10:26:24.277Z,-6.22
2022-11-20T10:28:42.888Z,-6.18
2022-11-20T10:30:56.546Z,-6.13
2022-11-20T10:33:29.064Z,-6.08
2022-11-20T10:35:44.362Z,-6.09
2022-11-20T10:37:52.691Z,-6.12
2022-11-20T10:40:26.319Z,-6.11
2022-11-20T10:42:46.532Z,-6.15
2022-11-20T10:45:06.607Z,-6.18
2022-11-20T10:47:19.661Z,-6.19
2022-11-20T10:49:22.613Z,-6.14
2022-11-20T10:51:40.045Z,-6.14
2022-11-20T10:53:54.409Z,-6.13
2022-11-20T10:56:08.741Z,-6.08
2022-11-20T10:58:24.558Z,-6.12
2022-11-20T11:00:27.268Z,-6.10
2022-11-20T11:02:40.237Z,-6.08
2022-11-20T11:04:48.867Z,-6.04
2022-11-20T11:06:56.135Z,-6.03
2022-11-20T11:09:04.423Z,-6.04
2022-11-20T11:11:21.902Z,-6.07
2022-11-20T11:13:28.286Z,-6.04
2022-11-20T11:15:43.040Z,-6.04
2022-11-20T11:17:48.926Z,-6.02
2022-11-20T11:20:08.184Z,-5.92
2022-11-20T11:22:19.362Z,-5.89
2022-11-20T11:24:46.972Z,-5.85
2022-11-20T11:27:05.550Z,-5.92
2022-11-20T11:29:19.139Z,-5.96
2022-11-20T11:31:26.538Z,-6.02
2022-11-20T11:33:31.858Z,-6.09
2022-11-20T11:35:34.895Z,-6.12
2022-11-20T11:37:40.003Z,-6.14
2022-11-20T11:39:44.473Z,-6.19
2022-11-20T11:41:47.935Z,-6.23
2022-11-20T11:44:20.302Z,-6.25
2022-11-20T11:46:25.685Z,-6.27
2022-11-20T11:48:28.385Z,-6.30
2022-11-20T11:50:32.169Z,-6.36
2022-11-20T11:52:44.157Z,-6.38
2022-11-20T11:54:56.668Z,-6.35
2022-11-20T11:57:06.741Z,-6.41
2022-11-20T11:59:18.312Z,-6.36
2022-11-20T12:01:53.016Z,-6.39
2022-11-20T12:04:20.598Z,-6.39
2022-11-20T12:06:24.620Z,-6.43
2022-11-20T12:08:42.914Z,-6.42
2022-11-20T12:11:13.381Z,-6.44
2022-11-20T12:13:25.044Z,-6.41
2022-11-20T12:15:34.308Z,-6.36
2022-11-20T12:17:36.987Z,-6.34
2022-11-20T12:19:39.639Z,-6.35
2022-11-20T12:21:51.243Z,-6.35
2022-11-20T12:24:25.814Z,-6.36
2022-11-20T12:26:40.686Z,-6.39
2022-11-20T12:28:54.259Z,-6.38
2022-11-20T12:31:46.314Z,-6.39
2022-11-20T12:34:07.194Z,-6.39
2022-11-20T12:36:36.727Z,-6.43
2022-11-20T12:39:03.669Z,-6.44
2022-11-20T12:41:41.912Z,-6.47
2022-11-20T12:44:20.205Z,-6.50
2022-11-20T12:46:35.525Z,-6.51
2022-11-20T12:48:41.056Z,-6.55
2022-11-20T12:51:18.986Z,-6.58
2022-11-20T12:53:58.769Z,-6.57
2022-11-20T12:56:16.247Z,-6.55
2022-11-20T12:58:40.624Z,-6.59
2022-11-20T13:00:54.898Z,-6.58
2022-11-20T13:03:06.280Z,-6.55
2022-11-20T13:05:21.276Z,-6.55
2022-11-20T13:07:27.444Z,-6.57
2022-11-20T13:09:31.211Z,-6.55
2022-11-20T13:11:46.301Z,-6.53
2022-11-20T13:14:16.748Z,-6.48
2022-11-20T13:16:28.541Z,-6.48
2022-11-20T13:18:39.018Z,-6.50
2022-11-20T13:20:46.834Z,-6.51
2022-11-20T13:22:55.859Z,-6.47
2022-11-20T13:24:58.504Z,-6.43
2022-11-20T13:27:10.020Z,-6.42
2022-11-20T13:29:18.859Z,-6.40
2022-11-20T13:31:36.053Z,-6.37
2022-11-20T13:33:39.989Z,-6.36
2022-11-20T13:35:43.987Z,-6.35
2022-11-20T13:37:46.600Z,-6.34
2022-11-20T13:39:49.319Z,-6.34
2022-11-20T13:42:03.452Z,-6.34
2022-11-20T13:44:24.905Z,-6.34
2022-11-20T13:46:43.924Z,-6.42
2022-11-20T13:48:47.844Z,-6.39
2022-11-20T13:51:15.093Z,-6.39
2022-11-20T13:53:53.636Z,-6.43
2022-11-20T13:56:02.969Z,-6.43
2022-11-20T13:58:44.384Z,-6.45
2022-11-20T14:00:58.451Z,-6.46
2022-11-20T14:03:44.144Z,-6.47
2022-11-20T14:06:04.211Z,-6.46
2022-11-20T14:08:14.573Z,-6.45
2022-11-20T14:10:31.393Z,-6.46
2022-11-20T14:12:35.311Z,-6.39
2022-11-20T14:14:50.066Z,-6.39
2022-11-20T14:16:54.882Z,-6.39
2022-11-20T14:18:58.939Z,-6.39
2022-11-20T14:21:03.173Z,-6.41
2022-11-20T14:23:06.463Z,-6.31
2022-11-20T14:25:18.254Z,-6.31
2022-11-20T14:27:22.580Z,-6.31
2022-11-20T14:29:30.545Z,-6.33
2022-11-20T14:31:33.268Z,-6.31
2022-11-20T14:33:36.734Z,-6.29
2022-11-20T14:35:47.093Z,-6.25
2022-11-20T14:37:49.804Z,-6.29
2022-11-20T14:39:56.384Z,-6.31
2022-11-20T14:41:59.102Z,-6.33
2022-11-20T14:44:03.223Z,-6.31
2022-11-20T14:46:12.341Z,-6.31
2022-11-20T14:48:16.971Z,-6.31
2022-11-20T14:50:24.486Z,-6.31
2022-11-20T14:52:28.986Z,-6.34
2022-11-20T14:54:31.959Z,-6.28
2022-11-20T14:56:34.645Z,-6.30
2022-11-20T14:58:37.342Z,-6.29
2022-11-20T15:00:40.224Z,-6.26
2022-11-20T15:02:47.980Z,-6.27
2022-11-20T15:05:00.593Z,-6.28
2022-11-20T15:07:03.303Z,-6.27
2022-11-20T15:09:14.977Z,-6.26
2022-11-20T15:11:27.271Z,-6.26
2022-11-20T15:13:35.887Z,-6.28
2022-11-20T15:15:56.710Z,-6.25
2022-11-20T15:17:59.900Z,-6.25
2022-11-20T15:20:04.599Z,-6.20
2022-11-20T15:22:14.317Z,-6.23
2022-11-20T15:24:17.053Z,-6.20
2022-11-20T15:26:28.851Z,-6.23
2022-11-20T15:28:41.568Z,-6.20
2022-11-20T15:30:44.496Z,-6.19
2022-11-20T15:32:48.351Z,-6.11
2022-11-20T15:34:50.933Z,-6.11
2022-11-20T15:36:54.278Z,-6.11
2022-11-20T15:38:57.432Z,-6.07
2022-11-20T15:41:00.089Z,-6.08
2022-11-20T15:43:12.632Z,-6.04
2022-11-20T15:45:16.138Z,-6.08
2022-11-20T15:47:20.061Z,-6.03
2022-11-20T15:49:24.872Z,-5.93
2022-11-20T15:51:39.372Z,-5.88
2022-11-20T15:53:43.064Z,-5.90
2022-11-20T15:55:45.722Z,-5.85
2022-11-20T15:57:48.277Z,-5.84
2022-11-20T15:59:50.829Z,-5.82
2022-11-20T16:01:53.443Z,-5.80
2022-11-20T16:03:56.163Z,-5.82
2022-11-20T16:05:58.869Z,-5.76
2022-11-20T16:08:04.954Z,-5.77
2022-11-20T16:10:11.212Z,-5.74
2022-11-20T16:12:33.995Z,-5.74
2022-11-20T16:14:55.059Z,-5.69
2022-11-20T16:16:57.737Z,-5.63
2022-11-20T16:19:01.522Z,-5.60
2022-11-20T16:21:04.975Z,-5.63
2022-11-20T16:23:08.205Z,-5.60
2022-11-20T16:25:10.964Z,-5.61
2022-11-20T16:27:13.634Z,-5.58
2022-11-20T16:29:16.310Z,-5.54
2022-11-20T16:31:20.757Z,-5.55
2022-11-20T16:33:23.505Z,-5.61
2022-11-20T16:35:28.627Z,-5.62
2022-11-20T16:37:31.324Z,-5.60
2022-11-20T16:39:33.997Z,-5.60
2022-11-20T16:41:37.339Z,-5.61
2022-11-20T16:44:01.577Z,-5.62
2022-11-20T16:46:05.106Z,-5.62
2022-11-20T16:48:07.712Z,-5.59
2022-11-20T16:50:11.242Z,-5.67
2022-11-20T16:52:14.403Z,-5.65
2022-11-20T16:54:20.763Z,-5.63
2022-11-20T16:56:26.353Z,-5.67
2022-11-20T16:58:28.865Z,-5.65
2022-11-20T17:00:31.399Z,-5.67
2022-11-20T17:02:34.145Z,-5.62
2022-11-20T17:04:37.342Z,-5.70
2022-11-20T17:06:44.420Z,-5.64
2022-11-20T17:08:47.813Z,-5.61
2022-11-20T17:10:50.376Z,-5.58
2022-11-20T17:12:53.292Z,-5.50
2022-11-20T17:14:55.967Z,-5.47
2022-11-20T17:16:58.824Z,-5.48
2022-11-20T17:19:03.565Z,-5.46
2022-11-20T17:21:07.272Z,-5.43
2022-11-20T17:23:10.279Z,-5.41
2022-11-20T17:25:12.921Z,-5.40
2022-11-20T17:27:15.711Z,-5.38
2022-11-20T17:29:21.808Z,-5.40
2022-11-20T17:31:24.444Z,-5.37
2022-11-20T17:33:27.157Z,-5.36
2022-11-20T17:35:29.826Z,-5.36
2022-11-20T17:37:32.468Z,-5.35
2022-11-20T17:39:35.139Z,-5.35
2022-11-20T17:41:38.088Z,-5.35
2022-11-20T17:43:42.958Z,-5.36
2022-11-20T17:45:45.723Z,-5.35
2022-11-20T17:47:48.427Z,-5.33
2022-11-20T17:49:51.544Z,-5.36
2022-11-20T17:51:55.036Z,-5.37
2022-11-20T17:54:01.036Z,-5.38
2022-11-20T17:56:23.588Z,-5.35
2022-11-20T17:58:29.290Z,-5.35
2022-11-20T18:00:31.907Z,-5.36
2022-11-20T18:02:34.685Z,-5.32
2022-11-20T18:04:37.603Z,-5.28
2022-11-20T18:06:40.551Z,-5.32
2022-11-20T18:08:44.596Z,-5.26
2022-11-20T18:10:47.268Z,-5.22
2022-11-20T18:12:49.898Z,-5.23
2022-11-20T18:14:52.568Z,-5.24
2022-11-20T18:17:10.251Z,-5.23
2022-11-20T18:19:18.742Z,-5.23
2022-11-20T18:21:21.770Z,-5.24
2022-11-20T18:23:24.392Z,-5.24
2022-11-20T18:25:27.116Z,-5.26
2022-11-20T18:27:30.037Z,-5.25
2022-11-20T18:29:32.724Z,-5.26
2022-11-20T18:31:35.356Z,-5.25
2022-11-20T18:33:38.312Z,-5.31
2022-11-20T18:35:43.038Z,-5.25
2022-11-20T18:37:45.700Z,-5.24
2022-11-20T18:39:50.574Z,-5.26
2022-11-20T18:42:12.016Z,-5.26
2022-11-20T18:44:34.228Z,-5.24
2022-11-20T18:46:36.817Z,-5.26
2022-11-20T18:48:39.506Z,-5.28
2022-11-20T18:50:42.084Z,-5.25
2022-11-20T18:52:45.001Z,-5.29
2022-11-20T18:54:47.749Z,-5.29
2022-11-20T18:56:50.799Z,-5.28
2022-11-20T18:58:54.686Z,-5.31
2022-11-20T19:01:06.393Z,-5.26
2022-11-20T19:03:09.071Z,-5.26
2022-11-20T19:05:13.660Z,-5.25
2022-11-20T19:07:16.834Z,-5.27
2022-11-20T19:09:19.627Z,-5.25
2022-11-20T19:11:22.340Z,-5.24
2022-11-20T19:13:25.035Z,-5.25
2022-11-20T19:15:29.028Z,-5.23
2022-11-20T19:17:33.598Z,-5.24
2022-11-20T19:19:36.279Z,-5.23
2022-11-20T19:21:39.016Z,-5.24
2022-11-20T19:23:42.061Z,-5.22
2022-11-20T19:25:44.654Z,-5.22
2022-11-20T19:27:47.260Z,-5.20
2022-11-20T19:29:50.052Z,-5.20
2022-11-20T19:31:53.501Z,-5.22
2022-11-20T19:34:01.329Z,-5.22
2022-11-20T19:36:16.499Z,-5.26
2022-11-20T19:38:19.184Z,-5.31
2022-11-20T19:40:22.270Z,-5.33
2022-11-20T19:42:25.364Z,-5.33
2022-11-20T19:44:28.011Z,-5.34
2022-11-20T19:46:32.728Z,-5.31
2022-11-20T19:48:37.837Z,-5.34
2022-11-20T19:50:40.410Z,-5.36
2022-11-20T19:52:42.981Z,-5.33
2022-11-20T19:54:45.827Z,-5.33
2022-11-20T19:56:49.669Z,-5.32
2022-11-20T19:58:56.289Z,-5.36
2022-11-20T20:01:09.726Z,-5.36
2022-11-20T20:03:12.436Z,-5.35
2022-11-20T20:05:15.072Z,-5.34
2022-11-20T20:07:17.930Z,-5.38
2022-11-20T20:09:22.683Z,-5.42
2022-11-20T20:11:27.842Z,-5.46
2022-11-20T20:13:30.350Z,-5.47
2022-11-20T20:15:33.207Z,-5.49
2022-11-20T20:17:35.759Z,-5.50
2022-11-20T20:19:38.393Z,-5.46
2022-11-20T20:21:41.692Z,-5.44
2022-11-20T20:23:45.058Z,-5.46
2022-11-20T20:25:48.838Z,-5.40
2022-11-20T20:27:51.459Z,-5.39
2022-11-20T20:29:54.035Z,-5.33
2022-11-20T20:31:56.796Z,-5.27
2022-11-20T20:33:59.981Z,-5.25
2022-11-20T20:36:02.523Z,-5.22
2022-11-20T20:38:05.212Z,-5.26
2022-11-20T20:40:12.237Z,-5.21
2022-11-20T20:42:17.720Z,-5.19
2022-11-20T20:44:38.994Z,-5.19
2022-11-20T20:46:41.912Z,-5.17
2022-11-20T20:48:44.620Z,-5.16
2022-11-20T20:50:55.165Z,-5.15
2022-11-20T20:52:57.777Z,-5.21
2022-11-20T20:55:00.551Z,-5.24
2022-11-20T20:57:03.279Z,-5.24
2022-11-20T20:59:06.588Z,-5.22
2022-11-20T21:01:12.997Z,-5.20
2022-11-20T21:03:15.791Z,-5.24
2022-11-20T21:05:18.338Z,-5.21
2022-11-20T21:07:21.513Z,-5.25
2022-11-20T21:09:24.364Z,-5.27
2022-11-20T21:11:27.549Z,-5.20
2022-11-20T21:13:30.856Z,-5.28
2022-11-20T21:15:33.508Z,-5.25
2022-11-20T21:17:36.522Z,-5.27
2022-11-20T21:19:39.133Z,-5.25
2022-11-20T21:21:59.853Z,-5.26
2022-11-20T21:24:02.924Z,-5.25
2022-11-20T21:26:08.761Z,-5.28
2022-11-20T21:28:15.611Z,-5.32
2022-11-20T21:30:20.825Z,-5.29
2022-11-20T21:32:23.473Z,-5.30
2022-11-20T21:34:26.526Z,-5.26
2022-11-20T21:36:31.198Z,-5.23
2022-11-20T21:38:34.597Z,-5.22
2022-11-20T21:40:37.238Z,-5.24
2022-11-20T21:42:39.818Z,-5.15
2022-11-20T21:44:42.705Z,-5.15
2022-11-20T21:46:46.591Z,-5.15
2022-11-20T21:48:49.442Z,-5.16
2022-11-20T21:50:52.012Z,-5.20
2022-11-20T21:52:54.656Z,-5.17
2022-11-20T21:54:57.260Z,-5.22
2022-11-20T21:57:00.424Z,-5.22
2022-11-20T21:59:03.133Z,-5.16
2022-11-20T22:01:25.596Z,-5.18
2022-11-20T22:03:28.317Z,-5.16
2022-11-20T22:05:30.984Z,-5.18
2022-11-20T22:07:33.653Z,-5.15
2022-11-20T22:09:36.335Z,-5.19
2022-11-20T22:11:39.050Z,-5.25
2022-11-20T22:14:00.995Z,-5.25
2022-11-20T22:16:03.894Z,-5.27
2022-11-20T22:18:12.828Z,-5.27
2022-11-20T22:20:18.556Z,-5.33
2022-11-20T22:22:21.226Z,-5.29
2022-11-20T22:24:24.280Z,-5.27
2022-11-20T22:26:33.912Z,-5.33
2022-11-20T22:28:40.470Z,-5.32
2022-11-20T22:30:43.072Z,-5.36
2022-11-20T22:32:45.729Z,-5.34
2022-11-20T22:34:48.341Z,-5.28
2022-11-20T22:36:50.927Z,-5.22
2022-11-20T22:38:53.519Z,-5.18
2022-11-20T22:41:10.592Z,-5.15
2022-11-20T22:43:13.247Z,-5.15
2022-11-20T22:45:16.250Z,-5.14
2022-11-20T22:47:18.935Z,-5.18
2022-11-20T22:49:21.629Z,-5.20
2022-11-20T22:51:26.876Z,-5.18
2022-11-20T22:53:29.546Z,-5.19
2022-11-20T22:55:34.085Z,-5.15
2022-11-20T22:57:37.123Z,-5.09
2022-11-20T22:59:40.353Z,-5.03
2022-11-20T23:01:42.974Z,-5.01
2022-11-20T23:03:48.695Z,-4.99
2022-11-20T23:05:51.414Z,-4.99
2022-11-20T23:07:53.970Z,-5.04
2022-11-20T23:09:56.738Z,-5.02
2022-11-20T23:11:59.266Z,-5.00
2022-11-20T23:14:07.756Z,-4.97
2022-11-20T23:16:15.855Z,-4.95
2022-11-20T23:18:18.599Z,-4.94
2022-11-20T23:20:21.412Z,-4.94
2022-11-20T23:22:24.129Z,-4.90
2022-11-20T23:24:26.972Z,-4.91
2022-11-20T23:26:32.430Z,-4.92
2022-11-20T23:28:35.333Z,-4.90
2022-11-20T23:30:37.901Z,-4.90
2022-11-20T23:32:40.542Z,-4.94
2022-11-20T23:34:43.152Z,-4.91
2022-11-20T23:36:45.691Z,-4.84
2022-11-20T23:38:48.531Z,-4.85
2022-11-20T23:40:52.366Z,-4.92
2022-11-20T23:43:13.362Z,-4.92
2022-11-20T23:45:16.091Z,-4.96
2022-11-20T23:47:18.671Z,-4.93
2022-11-20T23:49:21.253Z,-4.96
2022-11-20T23:51:24.052Z,-4.98
2022-11-20T23:53:27.563Z,-5.00
2022-11-20T23:55:30.572Z,-4.97
2022-11-20T23:57:33.125Z,-5.01
2022-11-20T23:59:35.816Z,-4.99
